Liberty of The Seas — C6VQ8 — position and weather

sailwx.info

Track history (hours):
 
Tides and Currents Weather Stations Pressure Air Temp Water Temp Dewpoint Dewpoint Depression Visibility Wind Speed Wind Dir Waves Ship Positions

Liberty of The Seas

Last reported at 2015-Aug-04 06:12 UTC. Time now 2015-Aug-05 04:13 UTC.
Position N 18°12' W 064°58'.

Type: Passenger vessel. MMSI: 309436000.

Date/timePositionNaut miles runAvg speedWind from/ knotsBaromVisibWave heightAir tempDewpointWater temp
2015-Aug-04 06:12N 18°12' W 064°58'1217.8
2015-Aug-04 05:32N 18°10' W 064°46'7917.9
2015-Aug-04 01:08N 18°02' W 063°23'1118.3
2015-Aug-04 00:33N 18°01' W 063°12'8 3.5
2015-Aug-03 22:09N 18°01' W 063°03'0 0.0
2015-Aug-03 21:27N 18°01' W 063°03'0 0.0
2015-Aug-03 20:09N 18°01' W 063°03'0 0.0
2015-Aug-03 18:27N 18°01' W 063°03'0 0.0
2015-Aug-03 17:12N 18°01' W 063°03'1 1.2
2015-Aug-03 16:32N 18°00' W 063°04'1716.9
2015-Aug-03 15:34N 18°09' W 063°19'  
2015-Jul-31 04:32N 39°07' W 072°14'2219.5
2015-Jul-31 03:25N 39°23' W 072°34'1719.6
2015-Jul-31 02:33N 39°35' W 072°49'1919.4
2015-Jul-31 01:33N 39°50' W 073°06'2019.5
2015-Jul-31 00:33N 40°04' W 073°23'2019.3
2015-Jul-30 23:32N 40°18' W 073°41'1616.0
2015-Jul-30 22:33N 40°29' W 073°55'1212.5
2015-Jul-30 21:33N 40°40' W 074°04'0 0.0
2015-Jul-30 20:32N 40°40' W 074°04'0 0.0
2015-Jul-30 19:32N 40°40' W 074°04'0 0.0
2015-Jul-30 18:32N 40°40' W 074°04'0 0.0
2015-Jul-30 17:32N 40°40' W 074°04'0 0.0
2015-Jul-30 16:32N 40°40' W 074°04'0 0.0
2015-Jul-30 15:32N 40°40' W 074°04'0 0.0
2015-Jul-30 14:32N 40°40' W 074°04'0 0.0
2015-Jul-30 13:32N 40°40' W 074°04'0 0.0
2015-Jul-30 12:32N 40°40' W 074°04'0 0.0
2015-Jul-30 11:32N 40°40' W 074°04'1 0.7
2015-Jul-30 10:33N 40°40' W 074°03'1212.0
2015-Jul-30 09:33N 40°29' W 073°55'1615.8
2015-Jul-30 08:33N 40°21' W 073°37'1817.8
2015-Jul-30 07:33N 40°11' W 073°19'1817.7
2015-Jul-30 06:33N 39°58' W 073°03'1817.9
2015-Jul-30 05:34N 39°44' W 072°48'1817.9
2015-Jul-30 04:33N 39°31' W 072°32'1817.6
2015-Jul-30 03:34N 39°18' W 072°17'1818.1
2015-Jul-30 02:33N 39°04' W 072°01'1818.4
2015-Jul-30 01:34N 38°51' W 071°45'1817.6
2015-Jul-30 00:33N 38°38' W 071°30'1818.0
2015-Jul-29 23:33N 38°24' W 071°14'1818.0
2015-Jul-29 22:33N 38°11' W 070°59'2217.6
2015-Jul-29 21:17N 37°54' W 070°40'1417.9
2015-Jul-29 20:30N 37°44' W 070°27'  
2015-Jul-25 22:33N 40°15' W 073°36'1716.5
2015-Jul-25 21:33N 40°27' W 073°50'1515.1
2015-Jul-25 20:33N 40°39' W 074°03'1 1.4
2015-Jul-25 19:32N 40°40' W 074°04'0 0.0
2015-Jul-25 18:32N 40°40' W 074°04'0 0.0
2015-Jul-25 17:32N 40°40' W 074°04'0 0.0
2015-Jul-25 16:32N 40°40' W 074°04'0 0.0
2015-Jul-25 15:32N 40°40' W 074°04'0 0.0
2015-Jul-25 14:32N 40°40' W 074°04'0 0.0
2015-Jul-25 13:32N 40°40' W 074°04'0 0.0
2015-Jul-25 12:32N 40°40' W 074°04'0 0.0
2015-Jul-25 11:32N 40°40' W 074°04'1 0.8
2015-Jul-25 10:34N 40°39' W 074°03'1212.4
2015-Jul-25 09:33N 40°29' W 073°54'1615.9
2015-Jul-25 08:34N 40°20' W 073°37'1919.0
2015-Jul-25 07:33N 40°08' W 073°18'1919.2
2015-Jul-25 06:33N 39°49' W 073°15'  
Track history (hours):
 
Tides and Currents Weather Stations Pressure Air Temp Water Temp Dewpoint Dewpoint Depression Visibility Wind Speed Wind Dir Waves Ship Positions

Liberty of The Seas

Last reported at 2015-Aug-04 06:12 UTC. Time now 2015-Aug-05 04:13 UTC.
Position N 18°12' W 064°58'.

Type: Passenger vessel. MMSI: 309436000.

Date/timePositionNaut miles runAvg speedWind from/ knotsBaromVisibWave heightAir tempDewpointWater temp
2015-Aug-04 06:12N 18°12' W 064°58'1217.8
2015-Aug-04 05:32N 18°10' W 064°46'7917.9
2015-Aug-04 01:08N 18°02' W 063°23'1118.3
2015-Aug-04 00:33N 18°01' W 063°12'8 3.5
2015-Aug-03 22:09N 18°01' W 063°03'0 0.0
2015-Aug-03 21:27N 18°01' W 063°03'0 0.0
2015-Aug-03 20:09N 18°01' W 063°03'0 0.0
2015-Aug-03 18:27N 18°01' W 063°03'0 0.0
2015-Aug-03 17:12N 18°01' W 063°03'1 1.2
2015-Aug-03 16:32N 18°00' W 063°04'1716.9
2015-Aug-03 15:34N 18°09' W 063°19'  
2015-Jul-31 04:32N 39°07' W 072°14'2219.5
2015-Jul-31 03:25N 39°23' W 072°34'1719.6
2015-Jul-31 02:33N 39°35' W 072°49'1919.4
2015-Jul-31 01:33N 39°50' W 073°06'2019.5
2015-Jul-31 00:33N 40°04' W 073°23'2019.3
2015-Jul-30 23:32N 40°18' W 073°41'1616.0
2015-Jul-30 22:33N 40°29' W 073°55'1212.5
2015-Jul-30 21:33N 40°40' W 074°04'0 0.0
2015-Jul-30 20:32N 40°40' W 074°04'0 0.0
2015-Jul-30 19:32N 40°40' W 074°04'0 0.0
2015-Jul-30 18:32N 40°40' W 074°04'0 0.0
2015-Jul-30 17:32N 40°40' W 074°04'0 0.0
2015-Jul-30 16:32N 40°40' W 074°04'0 0.0
2015-Jul-30 15:32N 40°40' W 074°04'0 0.0
2015-Jul-30 14:32N 40°40' W 074°04'0 0.0
2015-Jul-30 13:32N 40°40' W 074°04'0 0.0
2015-Jul-30 12:32N 40°40' W 074°04'0 0.0
2015-Jul-30 11:32N 40°40' W 074°04'1 0.7
2015-Jul-30 10:33N 40°40' W 074°03'1212.0
2015-Jul-30 09:33N 40°29' W 073°55'1615.8
2015-Jul-30 08:33N 40°21' W 073°37'1817.8
2015-Jul-30 07:33N 40°11' W 073°19'1817.7
2015-Jul-30 06:33N 39°58' W 073°03'1817.9
2015-Jul-30 05:34N 39°44' W 072°48'1817.9
2015-Jul-30 04:33N 39°31' W 072°32'1817.6
2015-Jul-30 03:34N 39°18' W 072°17'1818.1
2015-Jul-30 02:33N 39°04' W 072°01'1818.4
2015-Jul-30 01:34N 38°51' W 071°45'1817.6
2015-Jul-30 00:33N 38°38' W 071°30'1818.0
2015-Jul-29 23:33N 38°24' W 071°14'1818.0
2015-Jul-29 22:33N 38°11' W 070°59'2217.6
2015-Jul-29 21:17N 37°54' W 070°40'1417.9
2015-Jul-29 20:30N 37°44' W 070°27'  
2015-Jul-25 22:33N 40°15' W 073°36'1716.5
2015-Jul-25 21:33N 40°27' W 073°50'1515.1
2015-Jul-25 20:33N 40°39' W 074°03'1 1.4
2015-Jul-25 19:32N 40°40' W 074°04'0 0.0
2015-Jul-25 18:32N 40°40' W 074°04'0 0.0
2015-Jul-25 17:32N 40°40' W 074°04'0 0.0
2015-Jul-25 16:32N 40°40' W 074°04'0 0.0
2015-Jul-25 15:32N 40°40' W 074°04'0 0.0
2015-Jul-25 14:32N 40°40' W 074°04'0 0.0
2015-Jul-25 13:32N 40°40' W 074°04'0 0.0
2015-Jul-25 12:32N 40°40' W 074°04'0 0.0
2015-Jul-25 11:32N 40°40' W 074°04'1 0.8
2015-Jul-25 10:34N 40°39' W 074°03'1212.4
2015-Jul-25 09:33N 40°29' W 073°54'1615.9
2015-Jul-25 08:34N 40°20' W 073°37'1919.0
2015-Jul-25 07:33N 40°08' W 073°18'1919.2
2015-Jul-25 06:33N 39°49' W 073°15'  

Dump ship's entire track history